Time;durP1;ratioP1;P1;durP2;ratioP2;P2;SDS_P1;SDS_P2;PMS_P1;PMS_P2;Temp;Humidity;BMP_temperature;BMP_pressure;BME280_temperature;BME280_humidity;BME280_pressure;Samples;Min_cycle;Max_cycle;Signal;HPM_P1;HPM_P2
2022/10/20 00:01:44;;;;;;;6.65;3.70;;;;;;;;;;4986916;28;20030;-83
2022/10/20 00:04:09;;;;;;;7.10;3.72;;;;;;;;;;4986596;28;20474;-83
2022/10/20 00:06:35;;;;;;;8.40;4.32;;;;;;;;;;4982507;28;20034;-83
2022/10/20 00:09:02;;;;;;;6.63;3.40;;;;;;;;;;4985517;28;20027;-83
2022/10/20 00:11:28;;;;;;;5.25;3.58;;;;;;;;;;4988102;28;20116;-83
2022/10/20 00:13:55;;;;;;;8.43;3.97;;;;;;;;;;4972355;28;20038;-83
2022/10/20 00:16:23;;;;;;;5.80;3.70;;;;;;;;;;4984563;28;20037;-83
2022/10/20 00:18:48;;;;;;;11.35;4.15;;;;;;;;;;4986070;28;20425;-83
2022/10/20 00:21:20;;;;;;;9.45;4.45;;;;;;;;;;4981877;28;20023;-83
2022/10/20 00:23:46;;;;;;;10.02;4.30;;;;;;;;;;4985020;28;20121;-83
2022/10/20 00:26:15;;;;;;;8.30;3.72;;;;;;;;;;4962864;28;20033;-83
2022/10/20 00:28:41;;;;;;;7.32;3.90;;;;;;;;;;4987404;28;20073;-83
2022/10/20 00:31:07;;;;;;;5.70;3.63;;;;;;;;;;4984781;28;20030;-83
2022/10/20 00:33:33;;;;;;;11.95;4.32;;;;;;;;;;4988767;28;20026;-82
2022/10/20 00:36:00;;;;;;;7.40;4.47;;;;;;;;;;4982557;28;20391;-83
2022/10/20 00:38:26;;;;;;;8.30;4.03;;;;;;;;;;4983427;28;20038;-83
2022/10/20 00:40:51;;;;;;;8.57;4.28;;;;;;;;;;4985086;28;20034;-83
2022/10/20 00:43:17;;;;;;;9.80;4.57;;;;;;;;;;4988067;28;20129;-83
2022/10/20 00:45:48;;;;;;;7.15;4.07;;;;;;;;;;4980062;28;20474;-81
2022/10/20 00:48:18;;;;;;;10.20;4.13;;;;;;;;;;4970946;28;20475;-84
2022/10/20 00:50:49;;;;;;;7.95;4.30;;;;;;;;;;4984950;28;20034;-83
2022/10/20 00:53:16;;;;;;;7.50;4.53;;;;;;;;;;4987539;28;20026;-83
2022/10/20 00:55:45;;;;;;;7.22;4.40;;;;;;;;;;4971333;28;20102;-83
2022/10/20 00:58:11;;;;;;;7.85;4.15;;;;;;;;;;4985560;28;20034;-83
2022/10/20 01:00:38;;;;;;;10.70;5.00;;;;;;;;;;4979389;28;20061;-83
2022/10/20 01:03:06;;;;;;;7.13;4.18;;;;;;;;;;4983090;28;20429;-83
2022/10/20 01:05:31;;;;;;;5.78;3.95;;;;;;;;;;4987031;28;20038;-83
2022/10/20 01:07:56;;;;;;;7.93;3.88;;;;;;;;;;4985000;28;20097;-83
2022/10/20 01:10:25;;;;;;;6.47;4.40;;;;;;;;;;4981404;28;20031;-83
2022/10/20 01:13:03;;;;;;;9.52;4.50;;;;;;;;;;4981619;28;20474;-83
2022/10/20 01:15:53;;;;;;;7.95;4.78;;;;;;;;;;4969006;28;20516;-83
2022/10/20 01:18:36;;;;;;;7.55;4.35;;;;;;;;;;4981675;28;20033;-83
2022/10/20 01:21:25;;;;;;;8.05;4.55;;;;;;;;;;4964535;28;20026;-83
2022/10/20 01:24:21;;;;;;;7.50;4.35;;;;;;;;;;4960019;28;20579;-83
2022/10/20 01:27:15;;;;;;;6.15;4.18;;;;;;;;;;4985235;28;20038;-82
2022/10/20 01:29:56;;;;;;;8.35;4.60;;;;;;;;;;4985599;28;20367;-82
2022/10/20 01:32:42;;;;;;;7.43;5.00;;;;;;;;;;4989597;28;20133;-81
2022/10/20 01:35:16;;;;;;;8.95;4.78;;;;;;;;;;4990179;28;20097;-83
2022/10/20 01:37:44;;;;;;;10.07;4.88;;;;;;;;;;4991497;28;20072;-83
2022/10/20 01:40:33;;;;;;;8.70;4.95;;;;;;;;;;4988667;28;20036;-83
2022/10/20 01:43:03;;;;;;;7.30;4.80;;;;;;;;;;4988827;28;20023;-83
2022/10/20 01:45:32;;;;;;;6.60;4.43;;;;;;;;;;4988830;28;20030;-83
2022/10/20 01:48:01;;;;;;;8.70;5.10;;;;;;;;;;4982202;28;20046;-83
2022/10/20 01:50:27;;;;;;;8.43;4.93;;;;;;;;;;4993347;28;20029;-84
2022/10/20 01:52:57;;;;;;;7.63;4.82;;;;;;;;;;4990679;28;20037;-83
2022/10/20 01:55:22;;;;;;;7.53;4.53;;;;;;;;;;4985501;28;20526;-83
2022/10/20 01:58:06;;;;;;;8.02;5.10;;;;;;;;;;4991634;28;20161;-83
2022/10/20 02:00:35;;;;;;;8.02;4.80;;;;;;;;;;4969424;28;20030;-83
2022/10/20 02:03:31;;;;;;;11.13;5.20;;;;;;;;;;4975233;28;20505;-83
2022/10/20 02:06:15;;;;;;;8.23;4.63;;;;;;;;;;4989535;28;20810;-83
2022/10/20 02:08:54;;;;;;;10.88;5.15;;;;;;;;;;4987334;28;20117;-83
2022/10/20 02:11:45;;;;;;;10.40;5.50;;;;;;;;;;4971764;28;20486;-83
2022/10/20 02:14:14;;;;;;;9.38;5.50;;;;;;;;;;4976522;28;20042;-83
2022/10/20 02:16:45;;;;;;;8.52;5.25;;;;;;;;;;4989172;28;20033;-83
2022/10/20 02:19:12;;;;;;;9.82;5.45;;;;;;;;;;4987438;28;20045;-83
2022/10/20 02:21:37;;;;;;;10.57;6.22;;;;;;;;;;4975811;28;20042;-83
2022/10/20 02:24:05;;;;;;;7.90;5.40;;;;;;;;;;4986030;28;20034;-83
2022/10/20 02:26:33;;;;;;;9.90;5.93;;;;;;;;;;4988013;28;20510;-83
2022/10/20 02:29:08;;;;;;;10.75;6.10;;;;;;;;;;4996452;28;20022;-83
2022/10/20 02:31:33;;;;;;;9.18;5.57;;;;;;;;;;4990376;28;20451;-83
2022/10/20 02:33:59;;;;;;;12.02;5.72;;;;;;;;;;4990112;28;20133;-83
2022/10/20 02:36:27;;;;;;;8.95;5.43;;;;;;;;;;4989832;28;20030;-83
2022/10/20 02:38:52;;;;;;;10.38;5.60;;;;;;;;;;4989538;28;20416;-83
2022/10/20 02:41:17;;;;;;;8.13;5.20;;;;;;;;;;4969317;28;20029;-83
2022/10/20 02:43:43;;;;;;;8.43;5.25;;;;;;;;;;4974600;28;20023;-83
2022/10/20 02:46:08;;;;;;;9.05;5.38;;;;;;;;;;4989231;28;20026;-84
2022/10/20 02:48:34;;;;;;;9.27;5.75;;;;;;;;;;4990148;28;20061;-83
2022/10/20 02:50:59;;;;;;;10.70;5.82;;;;;;;;;;4989750;28;20081;-83
2022/10/20 02:53:24;;;;;;;8.70;5.53;;;;;;;;;;4991120;28;20486;-83
2022/10/20 02:55:50;;;;;;;8.50;5.93;;;;;;;;;;4987018;28;20030;-83
2022/10/20 02:58:15;;;;;;;10.20;5.85;;;;;;;;;;4987745;28;20026;-83
2022/10/20 03:00:41;;;;;;;10.35;5.60;;;;;;;;;;4986080;28;20042;-83
2022/10/20 03:03:06;;;;;;;9.50;5.22;;;;;;;;;;4989753;28;20721;-82
2022/10/20 03:05:31;;;;;;;9.07;5.32;;;;;;;;;;4989314;28;20496;-83
2022/10/20 03:07:57;;;;;;;10.38;5.97;;;;;;;;;;4987957;28;20046;-83
2022/10/20 03:10:22;;;;;;;12.13;5.78;;;;;;;;;;4988856;28;20034;-83
2022/10/20 03:12:47;;;;;;;10.18;6.10;;;;;;;;;;4982888;28;20486;-83
2022/10/20 03:15:13;;;;;;;9.23;6.20;;;;;;;;;;4973862;28;20062;-83
2022/10/20 03:17:38;;;;;;;11.80;6.00;;;;;;;;;;4984730;28;20121;-83
2022/10/20 03:20:04;;;;;;;11.77;6.30;;;;;;;;;;4989524;28;20034;-83
2022/10/20 03:22:30;;;;;;;11.07;5.80;;;;;;;;;;4986245;28;20480;-83
2022/10/20 03:24:55;;;;;;;8.48;5.35;;;;;;;;;;4989687;28;20109;-83
2022/10/20 03:27:21;;;;;;;10.45;5.85;;;;;;;;;;4984446;28;21864;-83
2022/10/20 03:29:46;;;;;;;11.13;5.93;;;;;;;;;;4986821;28;20038;-83
2022/10/20 03:32:11;;;;;;;8.65;5.38;;;;;;;;;;4993467;28;20117;-83
2022/10/20 03:34:37;;;;;;;10.93;6.25;;;;;;;;;;4986379;28;20046;-82
2022/10/20 03:37:02;;;;;;;11.02;6.40;;;;;;;;;;4991443;28;20825;-83
2022/10/20 03:39:27;;;;;;;9.63;6.32;;;;;;;;;;4987824;28;20037;-83
2022/10/20 03:41:53;;;;;;;10.23;5.90;;;;;;;;;;4989106;28;20038;-83
2022/10/20 03:44:18;;;;;;;10.10;5.40;;;;;;;;;;4987415;28;20390;-83
2022/10/20 03:46:44;;;;;;;9.38;5.78;;;;;;;;;;4968935;28;20030;-83
2022/10/20 03:49:10;;;;;;;10.10;5.70;;;;;;;;;;4986896;28;20478;-83
2022/10/20 03:51:35;;;;;;;13.73;6.32;;;;;;;;;;4987224;28;20556;-83
2022/10/20 03:54:01;;;;;;;10.40;5.93;;;;;;;;;;4988987;28;20116;-83
2022/10/20 03:56:26;;;;;;;9.60;5.90;;;;;;;;;;4988975;28;20030;-83
2022/10/20 03:58:52;;;;;;;9.85;5.75;;;;;;;;;;4987499;28;20042;-83
2022/10/20 04:01:20;;;;;;;9.82;5.70;;;;;;;;;;4985633;28;20427;-83
2022/10/20 04:03:45;;;;;;;9.30;6.05;;;;;;;;;;4983770;28;20129;-83
2022/10/20 04:06:12;;;;;;;9.98;6.35;;;;;;;;;;4987558;28;20138;-82
2022/10/20 04:08:38;;;;;;;12.05;6.55;;;;;;;;;;4985347;28;20482;-83
2022/10/20 04:11:03;;;;;;;9.15;5.72;;;;;;;;;;4990636;28;20040;-83
2022/10/20 04:13:28;;;;;;;9.05;5.93;;;;;;;;;;4984921;28;20038;-83
2022/10/20 04:15:54;;;;;;;13.25;6.18;;;;;;;;;;4987581;28;20062;-83
2022/10/20 04:18:19;;;;;;;9.52;6.00;;;;;;;;;;4984359;28;20092;-83
2022/10/20 04:20:46;;;;;;;9.82;6.10;;;;;;;;;;4976219;28;20402;-83
2022/10/20 04:23:12;;;;;;;9.48;5.68;;;;;;;;;;4989046;28;20027;-83
2022/10/20 04:25:46;;;;;;;10.55;6.75;;;;;;;;;;4987942;28;20116;-83
2022/10/20 04:28:17;;;;;;;11.48;6.53;;;;;;;;;;4990559;28;20056;-83
2022/10/20 04:30:43;;;;;;;9.57;6.20;;;;;;;;;;4984997;28;20482;-83
2022/10/20 04:33:09;;;;;;;9.43;5.80;;;;;;;;;;4969427;28;20505;-83
2022/10/20 04:35:34;;;;;;;9.30;5.90;;;;;;;;;;4982483;28;20050;-83
2022/10/20 04:38:00;;;;;;;9.95;6.28;;;;;;;;;;4982144;28;20025;-83
2022/10/20 04:40:25;;;;;;;10.38;6.63;;;;;;;;;;4968882;28;20413;-83
2022/10/20 04:42:50;;;;;;;10.05;6.45;;;;;;;;;;4987017;28;20037;-84
2022/10/20 04:45:16;;;;;;;11.15;5.80;;;;;;;;;;4988413;28;20522;-82
2022/10/20 04:47:41;;;;;;;9.68;6.15;;;;;;;;;;4983596;28;20256;-83
2022/10/20 04:50:07;;;;;;;12.13;7.05;;;;;;;;;;4985469;28;20483;-83
2022/10/20 04:52:33;;;;;;;12.13;7.20;;;;;;;;;;4983814;28;20027;-83
2022/10/20 04:54:58;;;;;;;10.60;6.90;;;;;;;;;;4986538;28;20482;-83
2022/10/20 04:57:23;;;;;;;10.27;6.75;;;;;;;;;;4988657;28;20085;-83
2022/10/20 04:59:49;;;;;;;12.90;6.65;;;;;;;;;;4971975;28;20034;-83
2022/10/20 05:02:14;;;;;;;9.98;6.75;;;;;;;;;;4989308;28;20046;-83
2022/10/20 05:04:40;;;;;;;11.07;6.38;;;;;;;;;;4989821;28;20101;-83
2022/10/20 05:07:05;;;;;;;10.60;6.30;;;;;;;;;;4989722;28;20026;-83
2022/10/20 05:09:31;;;;;;;13.85;6.93;;;;;;;;;;4990186;28;20113;-83
2022/10/20 05:11:58;;;;;;;11.93;6.93;;;;;;;;;;4973154;28;20018;-83
2022/10/20 05:14:23;;;;;;;12.43;6.82;;;;;;;;;;4975104;28;20592;-83
2022/10/20 05:16:48;;;;;;;12.95;6.90;;;;;;;;;;4989653;28;20018;-83
2022/10/20 05:19:14;;;;;;;10.85;6.07;;;;;;;;;;4989733;28;20065;-83
2022/10/20 05:21:39;;;;;;;10.85;6.10;;;;;;;;;;4987529;28;20489;-82
2022/10/20 05:24:05;;;;;;;12.45;6.82;;;;;;;;;;4970698;28;20030;-83
2022/10/20 05:26:35;;;;;;;8.93;5.72;;;;;;;;;;4993315;28;20121;-83
2022/10/20 05:29:03;;;;;;;12.18;6.57;;;;;;;;;;4985245;28;20102;-83
2022/10/20 05:31:28;;;;;;;9.57;6.50;;;;;;;;;;4982824;28;20039;-83
2022/10/20 05:33:55;;;;;;;8.63;5.53;;;;;;;;;;4995819;28;20050;-83
2022/10/20 05:36:25;;;;;;;12.93;6.50;;;;;;;;;;4993984;28;20056;-82
2022/10/20 05:38:52;;;;;;;11.07;6.10;;;;;;;;;;4986135;28;20025;-83
2022/10/20 05:41:29;;;;;;;12.00;6.15;;;;;;;;;;4978819;28;20040;-83
2022/10/20 05:44:00;;;;;;;9.20;5.97;;;;;;;;;;4973184;28;20041;-83
2022/10/20 05:46:28;;;;;;;12.40;5.97;;;;;;;;;;4994697;28;20030;-83
2022/10/20 05:48:56;;;;;;;10.88;6.43;;;;;;;;;;4976795;28;20031;-83
2022/10/20 05:51:24;;;;;;;10.15;6.18;;;;;;;;;;4988815;28;20036;-83
2022/10/20 05:53:49;;;;;;;10.45;6.25;;;;;;;;;;4988844;28;20030;-83
2022/10/20 05:56:17;;;;;;;10.48;6.80;;;;;;;;;;4988605;28;20026;-83
2022/10/20 05:58:43;;;;;;;12.45;6.55;;;;;;;;;;4989340;28;20076;-83
2022/10/20 06:01:16;;;;;;;12.60;7.30;;;;;;;;;;4985448;28;20428;-83
2022/10/20 06:03:42;;;;;;;10.32;6.57;;;;;;;;;;4990214;28;20022;-82
2022/10/20 06:06:07;;;;;;;10.95;6.30;;;;;;;;;;4990558;28;20034;-83
2022/10/20 06:08:33;;;;;;;12.57;6.47;;;;;;;;;;4983849;28;20018;-83
2022/10/20 06:11:07;;;;;;;9.93;6.13;;;;;;;;;;4975898;28;20503;-83
2022/10/20 06:13:33;;;;;;;10.10;5.82;;;;;;;;;;4994397;28;20483;-83
2022/10/20 06:16:06;;;;;;;10.35;6.47;;;;;;;;;;4993329;28;20029;-83
2022/10/20 06:18:31;;;;;;;12.90;6.10;;;;;;;;;;4993292;28;20031;-83
2022/10/20 06:21:08;;;;;;;13.27;6.45;;;;;;;;;;4976479;28;20520;-83
2022/10/20 06:23:34;;;;;;;12.30;6.30;;;;;;;;;;4983860;28;20490;-83
2022/10/20 06:26:11;;;;;;;11.52;6.60;;;;;;;;;;4972903;28;20033;-83
2022/10/20 06:28:39;;;;;;;12.30;6.38;;;;;;;;;;4980335;28;20492;-84
2022/10/20 06:31:17;;;;;;;9.93;5.97;;;;;;;;;;4989889;28;20482;-83
2022/10/20 06:33:42;;;;;;;11.98;6.53;;;;;;;;;;4990294;28;20085;-84
2022/10/20 06:36:09;;;;;;;10.38;6.22;;;;;;;;;;4990019;28;20037;-84
2022/10/20 06:38:34;;;;;;;11.70;6.40;;;;;;;;;;4971483;28;20504;-84
2022/10/20 06:41:01;;;;;;;9.95;6.32;;;;;;;;;;4990674;28;20031;-83
2022/10/20 06:43:26;;;;;;;11.05;6.57;;;;;;;;;;4992247;28;20037;-83
2022/10/20 06:46:00;;;;;;;11.02;6.00;;;;;;;;;;4991247;28;20022;-84
2022/10/20 06:48:26;;;;;;;8.88;5.97;;;;;;;;;;4991074;28;20026;-84
2022/10/20 06:50:56;;;;;;;8.90;5.97;;;;;;;;;;4989141;28;20022;-85
2022/10/20 06:53:22;;;;;;;9.25;6.38;;;;;;;;;;4987080;28;20022;-84
2022/10/20 06:56:09;;;;;;;12.68;6.47;;;;;;;;;;4974056;28;20045;-84
2022/10/20 06:58:36;;;;;;;9.60;6.03;;;;;;;;;;4984288;28;20343;-84
2022/10/20 07:01:03;;;;;;;9.93;6.05;;;;;;;;;;4991783;28;20033;-83
2022/10/20 07:03:29;;;;;;;11.18;6.43;;;;;;;;;;4973715;28;20045;-84
2022/10/20 07:05:55;;;;;;;8.68;6.05;;;;;;;;;;4986248;28;20109;-84
2022/10/20 07:08:22;;;;;;;8.73;6.10;;;;;;;;;;4991188;28;20030;-84
2022/10/20 07:10:56;;;;;;;11.27;7.00;;;;;;;;;;4993729;28;20033;-83
2022/10/20 07:13:21;;;;;;;11.93;6.75;;;;;;;;;;4976966;28;20034;-84
2022/10/20 07:15:46;;;;;;;10.85;6.32;;;;;;;;;;4991530;28;20033;-84
2022/10/20 07:18:12;;;;;;;9.30;6.43;;;;;;;;;;4990224;28;20018;-84
2022/10/20 07:20:37;;;;;;;10.63;6.97;;;;;;;;;;4992336;28;20109;-84
2022/10/20 07:23:02;;;;;;;10.38;6.60;;;;;;;;;;4988393;28;20022;-84
2022/10/20 07:25:29;;;;;;;14.18;6.85;;;;;;;;;;4971344;28;20022;-83
2022/10/20 07:27:54;;;;;;;10.85;6.82;;;;;;;;;;4978816;28;20027;-83
2022/10/20 07:30:19;;;;;;;10.57;6.60;;;;;;;;;;4991632;28;20028;-84
2022/10/20 07:32:45;;;;;;;11.32;6.82;;;;;;;;;;4962442;28;20050;-83
2022/10/20 07:35:10;;;;;;;10.07;6.68;;;;;;;;;;4989407;28;20077;-83
2022/10/20 07:37:36;;;;;;;11.20;6.75;;;;;;;;;;4992734;28;20034;-84
2022/10/20 07:40:01;;;;;;;10.98;6.82;;;;;;;;;;4976967;28;20026;-84
2022/10/20 07:42:28;;;;;;;13.38;6.93;;;;;;;;;;4991896;28;20144;-83
2022/10/20 07:44:53;;;;;;;9.73;6.75;;;;;;;;;;4990427;28;20399;-84
2022/10/20 07:47:18;;;;;;;9.85;6.60;;;;;;;;;;4991767;28;20030;-83
2022/10/20 07:49:44;;;;;;;9.80;6.82;;;;;;;;;;4974541;28;20030;-83
2022/10/20 07:52:10;;;;;;;10.43;6.63;;;;;;;;;;4990707;28;20022;-84
2022/10/20 07:54:36;;;;;;;12.88;7.13;;;;;;;;;;4993184;28;20022;-84
2022/10/20 07:57:01;;;;;;;10.43;6.88;;;;;;;;;;4978819;28;20061;-84
2022/10/20 07:59:28;;;;;;;12.00;7.47;;;;;;;;;;4991829;28;20030;-83
2022/10/20 08:01:53;;;;;;;10.93;6.68;;;;;;;;;;4982718;28;20076;-84
2022/10/20 08:04:19;;;;;;;9.27;6.75;;;;;;;;;;4991389;28;20026;-83
2022/10/20 08:06:46;;;;;;;12.20;7.47;;;;;;;;;;4990478;28;20030;-83
2022/10/20 08:09:11;;;;;;;11.15;7.70;;;;;;;;;;4990971;28;20442;-84
2022/10/20 08:11:37;;;;;;;12.30;7.13;;;;;;;;;;4992630;28;20061;-83
2022/10/20 08:14:02;;;;;;;11.93;8.00;;;;;;;;;;4974223;28;20026;-83
2022/10/20 08:16:27;;;;;;;14.95;8.13;;;;;;;;;;4985708;28;20054;-83
2022/10/20 08:18:53;;;;;;;14.38;7.50;;;;;;;;;;4971330;28;20068;-83
2022/10/20 08:21:20;;;;;;;10.82;7.28;;;;;;;;;;4991117;28;20030;-83
2022/10/20 08:23:47;;;;;;;11.80;7.05;;;;;;;;;;4989734;28;20026;-83
2022/10/20 08:26:20;;;;;;;12.50;7.43;;;;;;;;;;4989577;28;20030;-83
2022/10/20 08:28:47;;;;;;;13.43;6.93;;;;;;;;;;4974736;28;20034;-83
2022/10/20 08:31:13;;;;;;;12.55;8.02;;;;;;;;;;4993929;28;20038;-83
2022/10/20 08:33:39;;;;;;;13.80;7.85;;;;;;;;;;4979034;28;20486;-83
2022/10/20 08:36:07;;;;;;;12.57;7.50;;;;;;;;;;4989143;28;20061;-83
2022/10/20 08:38:34;;;;;;;14.07;7.72;;;;;;;;;;4991496;28;20026;-82
2022/10/20 08:41:00;;;;;;;11.93;7.32;;;;;;;;;;4975600;28;20026;-83
2022/10/20 08:43:27;;;;;;;13.40;6.72;;;;;;;;;;4992221;28;20044;-83
2022/10/20 08:45:52;;;;;;;11.55;7.40;;;;;;;;;;4990707;28;20034;-83
2022/10/20 08:48:22;;;;;;;12.45;7.80;;;;;;;;;;4991769;28;20030;-83
2022/10/20 08:50:50;;;;;;;11.65;8.15;;;;;;;;;;4974704;28;20399;-83
2022/10/20 08:53:20;;;;;;;15.60;7.97;;;;;;;;;;4990121;28;20030;-82
2022/10/20 08:55:46;;;;;;;11.20;6.75;;;;;;;;;;4973363;28;20057;-83
2022/10/20 08:58:18;;;;;;;10.88;7.15;;;;;;;;;;4992360;28;20033;-83
2022/10/20 09:00:44;;;;;;;11.43;6.85;;;;;;;;;;4966014;28;20380;-82
2022/10/20 09:03:19;;;;;;;10.82;7.47;;;;;;;;;;4985774;28;20069;-82
2022/10/20 09:05:51;;;;;;;11.48;6.72;;;;;;;;;;4982853;28;20083;-83
2022/10/20 09:08:18;;;;;;;9.45;7.10;;;;;;;;;;4973416;28;20031;-83
2022/10/20 09:10:48;;;;;;;10.57;7.25;;;;;;;;;;4988881;28;20483;-83
2022/10/20 09:13:28;;;;;;;11.23;7.40;;;;;;;;;;4983529;28;20418;-83
2022/10/20 09:16:04;;;;;;;11.15;7.45;;;;;;;;;;4989997;28;20486;-83
2022/10/20 09:18:31;;;;;;;11.60;7.32;;;;;;;;;;4988301;28;20101;-83
2022/10/20 09:21:01;;;;;;;14.70;7.47;;;;;;;;;;4989575;28;20038;-82
2022/10/20 09:23:35;;;;;;;10.15;7.57;;;;;;;;;;4985985;28;20089;-82
2022/10/20 09:26:01;;;;;;;10.13;7.47;;;;;;;;;;4988328;28;20054;-83
2022/10/20 09:28:27;;;;;;;12.43;8.00;;;;;;;;;;4989524;28;20502;-83
2022/10/20 09:30:54;;;;;;;13.45;8.30;;;;;;;;;;4983232;28;20043;-83
2022/10/20 09:33:32;;;;;;;12.77;7.95;;;;;;;;;;4987763;28;20057;-83
2022/10/20 09:36:19;;;;;;;11.82;7.22;;;;;;;;;;4990166;28;20085;-82
2022/10/20 09:38:47;;;;;;;10.43;6.82;;;;;;;;;;4972059;28;20026;-82
2022/10/20 09:41:18;;;;;;;11.95;7.43;;;;;;;;;;4985199;28;20034;-83
2022/10/20 09:43:51;;;;;;;13.23;7.85;;;;;;;;;;4991168;28;20498;-82
2022/10/20 09:46:21;;;;;;;11.48;7.70;;;;;;;;;;4987319;28;20038;-82
2022/10/20 09:48:48;;;;;;;12.15;8.10;;;;;;;;;;4992115;28;20125;-82
2022/10/20 09:51:25;;;;;;;12.02;7.75;;;;;;;;;;4980832;28;20490;-82
2022/10/20 09:53:56;;;;;;;12.43;7.35;;;;;;;;;;4995886;28;20529;-82
2022/10/20 09:56:43;;;;;;;11.80;7.78;;;;;;;;;;4991164;28;20038;-83
2022/10/20 09:59:29;;;;;;;13.02;7.70;;;;;;;;;;4978248;28;20030;-82
2022/10/20 10:02:22;;;;;;;12.07;7.55;;;;;;;;;;4994543;28;20386;-82
2022/10/20 10:04:52;;;;;;;12.40;8.05;;;;;;;;;;4975399;28;20034;-82
2022/10/20 10:07:20;;;;;;;13.68;7.68;;;;;;;;;;4993125;28;20110;-82
2022/10/20 10:10:05;;;;;;;11.02;7.03;;;;;;;;;;4993354;28;20061;-83
2022/10/20 10:12:31;;;;;;;13.40;7.93;;;;;;;;;;4994753;28;20026;-82
2022/10/20 10:14:59;;;;;;;10.80;7.25;;;;;;;;;;4994246;28;20084;-82
2022/10/20 10:17:32;;;;;;;13.63;8.15;;;;;;;;;;4994756;28;20026;-82
2022/10/20 10:19:58;;;;;;;13.05;7.43;;;;;;;;;;4994176;28;20068;-83
2022/10/20 10:22:24;;;;;;;12.02;7.85;;;;;;;;;;4989541;28;20901;-83
2022/10/20 10:24:50;;;;;;;12.32;7.47;;;;;;;;;;4987330;28;20121;-83
2022/10/20 10:27:23;;;;;;;14.45;8.00;;;;;;;;;;4986126;28;20030;-82
2022/10/20 10:29:50;;;;;;;11.82;8.13;;;;;;;;;;4995259;28;20038;-83
2022/10/20 10:32:25;;;;;;;10.77;7.38;;;;;;;;;;4975376;28;20035;-83
2022/10/20 10:35:19;;;;;;;12.73;8.30;;;;;;;;;;4996716;28;20108;-83
2022/10/20 10:37:45;;;;;;;12.63;8.38;;;;;;;;;;4979561;28;20469;-82
2022/10/20 10:40:33;;;;;;;12.02;8.15;;;;;;;;;;4986941;28;20022;-83
2022/10/20 10:43:12;;;;;;;11.70;8.15;;;;;;;;;;4976775;28;20037;-82
2022/10/20 10:46:04;;;;;;;12.45;8.25;;;;;;;;;;4993073;28;20029;-82
2022/10/20 10:48:39;;;;;;;13.40;8.20;;;;;;;;;;4941715;28;20050;-83
2022/10/20 10:51:25;;;;;;;13.57;8.85;;;;;;;;;;4990867;28;20061;-83
2022/10/20 10:54:14;;;;;;;15.43;8.63;;;;;;;;;;4956677;28;20402;-83
2022/10/20 10:56:45;;;;;;;12.40;8.65;;;;;;;;;;4986420;28;20034;-83
2022/10/20 10:59:20;;;;;;;13.30;8.77;;;;;;;;;;4977109;28;20031;-83
2022/10/20 11:01:51;;;;;;;17.92;8.30;;;;;;;;;;4988717;28;20034;-82
2022/10/20 11:05:14;;;;;;;13.35;8.20;;;;;;;;;;4977361;28;20046;-83
2022/10/20 11:07:42;;;;;;;13.57;8.45;;;;;;;;;;4909204;29;20084;-83
2022/10/20 11:10:21;;;;;;;16.92;9.05;;;;;;;;;;4897829;29;20028;-82
2022/10/20 11:13:11;;;;;;;13.73;8.45;;;;;;;;;;4957259;28;20049;-83
2022/10/20 11:15:55;;;;;;;14.55;8.82;;;;;;;;;;4978129;28;20498;-82
2022/10/20 11:18:44;;;;;;;14.85;8.85;;;;;;;;;;4986501;28;20113;-83
2022/10/20 11:21:13;;;;;;;11.77;8.43;;;;;;;;;;4973129;28;20425;-82
2022/10/20 11:24:05;;;;;;;14.77;8.80;;;;;;;;;;4973857;28;20109;-82
2022/10/20 11:27:09;;;;;;;14.30;8.40;;;;;;;;;;4992095;28;20026;-82
2022/10/20 11:29:53;;;;;;;13.75;8.57;;;;;;;;;;4974159;28;20561;-83
2022/10/20 11:32:56;;;;;;;13.98;8.75;;;;;;;;;;4979930;28;20062;-82
2022/10/20 11:35:46;;;;;;;14.70;8.45;;;;;;;;;;4980573;28;20058;-83
2022/10/20 11:38:30;;;;;;;15.60;8.70;;;;;;;;;;4993428;28;20026;-82
2022/10/20 11:41:04;;;;;;;12.48;8.82;;;;;;;;;;4977068;28;20034;-82
2022/10/20 11:43:45;;;;;;;15.40;9.75;;;;;;;;;;4975517;28;20026;-82
2022/10/20 11:46:25;;;;;;;18.05;9.82;;;;;;;;;;4975615;28;20058;-82
2022/10/20 11:48:53;;;;;;;13.50;8.40;;;;;;;;;;4989595;28;20371;-81
2022/10/20 11:52:03;;;;;;;12.45;8.90;;;;;;;;;;4988032;28;20030;-82
2022/10/20 11:54:37;;;;;;;14.48;9.25;;;;;;;;;;4947132;28;20047;-82
2022/10/20 11:57:33;;;;;;;13.48;8.70;;;;;;;;;;4987293;28;20053;-82
2022/10/20 12:00:06;;;;;;;15.45;9.07;;;;;;;;;;4984800;28;20088;-82
2022/10/20 12:03:09;;;;;;;12.70;7.97;;;;;;;;;;4973945;28;20030;-82
2022/10/20 12:05:53;;;;;;;14.73;8.25;;;;;;;;;;4975578;28;20438;-82
2022/10/20 12:08:21;;;;;;;13.23;8.23;;;;;;;;;;4968169;28;20482;-83
2022/10/20 12:11:16;;;;;;;17.00;8.98;;;;;;;;;;4987520;28;20022;-82
2022/10/20 12:14:02;;;;;;;15.02;8.65;;;;;;;;;;4979686;28;20482;-82
2022/10/20 12:16:52;;;;;;;15.40;8.85;;;;;;;;;;4988983;28;20080;-82
2022/10/20 12:19:43;;;;;;;16.90;9.45;;;;;;;;;;4991875;28;20048;-83
2022/10/20 12:22:39;;;;;;;14.88;9.35;;;;;;;;;;4989540;28;20048;-81
2022/10/20 12:25:04;;;;;;;13.15;8.43;;;;;;;;;;4971243;28;20058;-82
2022/10/20 12:27:31;;;;;;;15.57;8.95;;;;;;;;;;4972957;28;20072;-82
2022/10/20 12:30:17;;;;;;;14.05;8.77;;;;;;;;;;4982683;28;20022;-82
2022/10/20 12:32:52;;;;;;;16.88;9.48;;;;;;;;;;4971990;28;20042;-82
2022/10/20 12:35:17;;;;;;;16.52;9.32;;;;;;;;;;4976335;28;20442;-82
2022/10/20 12:37:54;;;;;;;13.95;8.70;;;;;;;;;;4972757;28;20125;-83
2022/10/20 12:40:28;;;;;;;12.25;8.98;;;;;;;;;;4997857;28;20533;-82
2022/10/20 12:42:54;;;;;;;14.52;8.68;;;;;;;;;;4973216;28;20556;-82
2022/10/20 12:45:26;;;;;;;13.95;9.25;;;;;;;;;;4988352;28;20030;-82
2022/10/20 12:47:58;;;;;;;13.88;8.30;;;;;;;;;;4973022;28;20022;-83
2022/10/20 12:50:37;;;;;;;15.90;9.30;;;;;;;;;;4987158;28;20470;-82
2022/10/20 12:53:17;;;;;;;15.48;9.65;;;;;;;;;;4966617;28;20030;-83
2022/10/20 12:56:09;;;;;;;14.63;9.18;;;;;;;;;;4973119;28;20503;-82
2022/10/20 12:58:36;;;;;;;14.18;9.05;;;;;;;;;;4969785;28;20406;-82
2022/10/20 13:01:08;;;;;;;16.33;9.18;;;;;;;;;;4982905;28;20038;-82
2022/10/20 13:03:37;;;;;;;15.38;10.13;;;;;;;;;;4973117;28;20080;-82
2022/10/20 13:06:22;;;;;;;16.17;9.80;;;;;;;;;;4973884;28;20030;-82
2022/10/20 13:09:03;;;;;;;13.90;9.63;;;;;;;;;;4983774;28;20037;-82
2022/10/20 13:11:41;;;;;;;14.80;10.02;;;;;;;;;;4976585;28;20040;-82
2022/10/20 13:14:20;;;;;;;13.32;9.00;;;;;;;;;;4974437;28;20041;-82
2022/10/20 13:17:08;;;;;;;14.93;9.70;;;;;;;;;;4976504;28;20057;-83
2022/10/20 13:19:51;;;;;;;16.85;11.02;;;;;;;;;;4977125;28;20037;-82
2022/10/20 13:22:42;;;;;;;14.80;9.95;;;;;;;;;;4977131;28;20113;-82
2022/10/20 13:25:31;;;;;;;14.90;9.68;;;;;;;;;;4967722;28;20042;-82
2022/10/20 13:28:24;;;;;;;14.68;9.77;;;;;;;;;;4979334;28;20534;-82
2022/10/20 13:31:05;;;;;;;17.92;10.13;;;;;;;;;;4974772;28;20034;-82
2022/10/20 13:33:41;;;;;;;15.98;10.75;;;;;;;;;;4992096;28;20034;-82
2022/10/20 13:36:06;;;;;;;16.50;11.02;;;;;;;;;;4969905;28;20026;-82
2022/10/20 13:38:42;;;;;;;15.52;10.27;;;;;;;;;;4993172;28;20034;-82
2022/10/20 13:41:25;;;;;;;16.90;10.18;;;;;;;;;;4975074;28;20034;-82
2022/10/20 13:44:01;;;;;;;;;;;;;;;;;;4979288;28;20060;-83
2022/10/20 13:46:42;;;;;;;15.00;9.90;;;;;;;;;;4977213;28;19914;-82
2022/10/20 13:49:25;;;;;;;14.52;10.25;;;;;;;;;;4984292;28;20122;-82
2022/10/20 13:51:54;;;;;;;16.73;10.48;;;;;;;;;;4985217;28;20079;-82
2022/10/20 13:54:30;;;;;;;17.25;10.52;;;;;;;;;;4991803;28;20479;-82
2022/10/20 13:56:56;;;;;;;18.52;11.27;;;;;;;;;;4997053;28;20026;-82
2022/10/20 13:59:29;;;;;;;15.80;9.90;;;;;;;;;;4993039;28;20034;-82
2022/10/20 14:01:59;;;;;;;;;;;;;;;;;;4988089;28;20026;-82
2022/10/20 14:04:30;;;;;;;17.90;10.20;;;;;;;;;;4978797;28;19917;-82
2022/10/20 14:07:02;;;;;;;18.83;11.23;;;;;;;;;;4985719;28;20471;-82
2022/10/20 14:09:28;;;;;;;15.50;10.95;;;;;;;;;;4975632;28;20030;-83
2022/10/20 14:11:59;;;;;;;20.55;11.20;;;;;;;;;;4990885;28;20037;-82
2022/10/20 14:14:27;;;;;;;16.05;10.75;;;;;;;;;;4994389;28;20034;-82
2022/10/20 14:17:07;;;;;;;18.45;12.02;;;;;;;;;;4976848;28;20581;-83
2022/10/20 14:19:33;;;;;;;18.90;11.40;;;;;;;;;;4993178;28;20416;-82
2022/10/20 14:22:16;;;;;;;21.55;11.32;;;;;;;;;;4989184;28;20084;-80
2022/10/20 14:24:44;;;;;;;15.35;11.52;;;;;;;;;;4990254;28;20031;-82
2022/10/20 14:27:31;;;;;;;21.60;11.88;;;;;;;;;;4990468;28;20489;-83
2022/10/20 14:29:58;;;;;;;16.88;10.70;;;;;;;;;;4973414;28;20474;-82
2022/10/20 14:32:26;;;;;;;18.83;11.18;;;;;;;;;;4977123;28;20030;-82
2022/10/20 14:35:00;;;;;;;18.52;11.90;;;;;;;;;;4989157;28;20050;-82
2022/10/20 14:37:36;;;;;;;18.00;11.35;;;;;;;;;;4991717;28;20065;-82
2022/10/20 14:40:07;;;;;;;15.80;11.23;;;;;;;;;;4992627;28;20077;-82
2022/10/20 14:42:33;;;;;;;15.02;11.02;;;;;;;;;;4990667;28;20068;-81
2022/10/20 14:45:02;;;;;;;17.80;11.63;;;;;;;;;;4983794;28;20054;-82
2022/10/20 14:47:37;;;;;;;20.83;11.77;;;;;;;;;;4986291;28;20029;-82
2022/10/20 14:50:04;;;;;;;17.90;11.32;;;;;;;;;;4986233;28;20022;-81
2022/10/20 14:52:34;;;;;;;17.00;11.25;;;;;;;;;;4976785;28;20026;-82
2022/10/20 14:54:59;;;;;;;17.50;10.75;;;;;;;;;;4992945;28;20450;-82
2022/10/20 14:57:38;;;;;;;18.13;11.60;;;;;;;;;;5001863;28;20022;-81
2022/10/20 15:00:27;;;;;;;17.17;10.82;;;;;;;;;;4991570;28;20505;-82